createdAt,value
2023-03-06T00:00:18.137Z,27.83
2023-03-06T00:02:44.770Z,24.58
2023-03-06T00:05:11.891Z,26.13
2023-03-06T00:07:38.420Z,22.23
2023-03-06T00:10:05.035Z,22.90
2023-03-06T00:12:31.429Z,25.05
2023-03-06T00:14:57.896Z,24.80
2023-03-06T00:17:27.187Z,25.98
2023-03-06T00:19:53.804Z,25.20
2023-03-06T00:22:20.258Z,25.88
2023-03-06T00:24:46.647Z,23.98
2023-03-06T00:27:13.141Z,25.80
2023-03-06T00:29:39.548Z,29.25
2023-03-06T00:32:06.277Z,29.30
2023-03-06T00:34:33.682Z,26.05
2023-03-06T00:37:00.105Z,26.05
2023-03-06T00:39:26.624Z,24.67
2023-03-06T00:41:53.512Z,26.35
2023-03-06T00:44:19.919Z,30.15
2023-03-06T00:46:46.622Z,27.45
2023-03-06T00:49:13.083Z,27.05
2023-03-06T00:51:39.503Z,30.33
2023-03-06T00:54:06.007Z,28.23
2023-03-06T00:56:32.426Z,26.65
2023-03-06T00:59:01.825Z,30.30
2023-03-06T01:01:29.300Z,28.50
2023-03-06T01:03:55.828Z,28.17
2023-03-06T01:06:22.289Z,30.00
2023-03-06T01:08:48.690Z,27.08
2023-03-06T01:11:15.111Z,28.15
2023-03-06T01:13:44.526Z,29.42
2023-03-06T01:16:15.320Z,29.23
2023-03-06T01:18:42.134Z,31.10
2023-03-06T01:21:08.897Z,29.08
2023-03-06T01:23:35.402Z,28.05
2023-03-06T01:26:01.836Z,27.48
2023-03-06T01:28:28.422Z,29.63
2023-03-06T01:30:55.355Z,28.58
2023-03-06T01:33:22.229Z,28.02
2023-03-06T01:35:49.355Z,30.15
2023-03-06T01:38:15.833Z,30.40
2023-03-06T01:40:42.234Z,29.58
2023-03-06T01:43:24.530Z,32.97
2023-03-06T01:45:51.395Z,30.50
2023-03-06T01:48:21.903Z,34.05
2023-03-06T01:50:49.357Z,31.65
2023-03-06T01:53:15.836Z,29.85
2023-03-06T01:55:42.418Z,31.55
2023-03-06T01:58:10.991Z,28.85
2023-03-06T02:00:37.454Z,31.33
2023-03-06T02:03:10.221Z,31.05
2023-03-06T02:05:37.749Z,28.48
2023-03-06T02:08:04.515Z,29.23
2023-03-06T02:10:31.118Z,30.38
2023-03-06T02:19:00.299Z,28.30
2023-03-06T02:21:34.140Z,27.35
2023-03-06T02:24:11.905Z,31.00
2023-03-06T02:26:39.240Z,32.50
2023-03-06T02:29:07.295Z,30.77
2023-03-06T02:31:34.164Z,30.63
2023-03-06T02:34:08.163Z,28.48
2023-03-06T02:36:40.949Z,28.80
2023-03-06T02:39:08.566Z,29.15
2023-03-06T02:41:35.042Z,30.52
2023-03-06T02:44:01.915Z,29.30
2023-03-06T02:46:28.625Z,25.35
2023-03-06T02:48:55.099Z,28.42
2023-03-06T02:51:21.998Z,27.80
2023-03-06T02:53:49.215Z,29.85
2023-03-06T02:56:16.184Z,30.52
2023-03-06T02:58:42.978Z,29.45
2023-03-06T03:01:09.749Z,26.52
2023-03-06T03:03:37.300Z,26.90
2023-03-06T03:06:07.278Z,29.17
2023-03-06T03:08:35.060Z,28.13
2023-03-06T03:11:03.774Z,26.73
2023-03-06T03:13:37.616Z,28.40
2023-03-06T03:16:06.631Z,26.85
2023-03-06T03:18:33.588Z,28.85
2023-03-06T03:21:00.153Z,30.77
2023-03-06T03:23:26.619Z,26.42
2023-03-06T03:25:56.780Z,27.27
2023-03-06T03:28:23.445Z,31.00
2023-03-06T03:30:50.328Z,30.98
2023-03-06T03:33:16.897Z,29.80
2023-03-06T03:35:43.967Z,28.92
2023-03-06T03:38:10.440Z,29.13
2023-03-06T03:40:38.433Z,29.63
2023-03-06T03:43:05.068Z,33.67
2023-03-06T03:45:32.279Z,29.48
2023-03-06T03:47:58.809Z,31.73
2023-03-06T03:50:25.302Z,29.88
2023-03-06T03:52:51.780Z,27.48
2023-03-06T03:55:18.444Z,31.35
2023-03-06T03:57:44.948Z,33.13
2023-03-06T04:00:16.723Z,31.17
2023-03-06T04:02:53.030Z,30.73
2023-03-06T04:07:53.012Z,29.80
2023-03-06T04:10:20.596Z,27.92
2023-03-06T04:12:47.014Z,28.38
2023-03-06T04:15:13.806Z,32.33
2023-03-06T04:17:40.997Z,31.70
2023-03-06T04:20:12.322Z,29.40
2023-03-06T04:22:38.806Z,28.90
2023-03-06T04:25:05.594Z,30.77
2023-03-06T04:27:32.128Z,27.05
2023-03-06T04:29:58.823Z,36.05
2023-03-06T04:32:25.716Z,26.27
2023-03-06T04:34:52.177Z,24.83
2023-03-06T04:37:20.484Z,24.25
2023-03-06T04:39:47.102Z,27.20
2023-03-06T04:42:13.648Z,24.95
2023-03-06T04:44:40.115Z,24.95
2023-03-06T04:47:06.681Z,28.23
2023-03-06T04:49:33.122Z,25.25
2023-03-06T04:51:59.878Z,26.48
2023-03-06T04:54:26.330Z,28.02
2023-03-06T04:56:52.831Z,25.42
2023-03-06T04:59:19.248Z,24.80
2023-03-06T05:01:45.702Z,25.85
2023-03-06T05:04:12.087Z,26.00
2023-03-06T05:06:38.504Z,26.05
2023-03-06T05:09:04.936Z,27.23
2023-03-06T05:11:31.335Z,27.40
2023-03-06T05:13:57.802Z,28.20
2023-03-06T05:16:24.275Z,29.38
2023-03-06T05:18:50.902Z,30.95
2023-03-06T05:21:17.340Z,27.75
2023-03-06T05:23:43.803Z,30.52
2023-03-06T05:26:11.221Z,32.10
2023-03-06T05:28:38.328Z,26.65
2023-03-06T05:31:05.297Z,26.27
2023-03-06T05:33:32.362Z,29.30
2023-03-06T05:35:59.022Z,29.60
2023-03-06T05:38:26.046Z,29.83
2023-03-06T05:40:52.475Z,30.02
2023-03-06T05:43:18.949Z,33.75
2023-03-06T05:45:45.376Z,32.42
2023-03-06T05:48:12.563Z,33.17
2023-03-06T05:50:39.200Z,35.15
2023-03-06T05:53:05.908Z,36.05
2023-03-06T05:55:32.302Z,39.95
2023-03-06T05:57:58.718Z,37.85
2023-03-06T06:00:25.309Z,37.85
2023-03-06T06:02:51.719Z,38.00
2023-03-06T06:05:18.231Z,34.67
2023-03-06T06:07:44.644Z,33.83
2023-03-06T06:10:11.731Z,37.65
2023-03-06T06:12:38.190Z,32.75
2023-03-06T06:15:06.547Z,33.45
2023-03-06T06:17:33.095Z,32.90
2023-03-06T06:19:59.671Z,31.15
2023-03-06T06:22:26.188Z,27.88
2023-03-06T06:24:52.650Z,30.88
2023-03-06T06:27:19.074Z,29.48
2023-03-06T06:29:45.467Z,33.75
2023-03-06T06:32:11.918Z,28.70
2023-03-06T06:34:38.333Z,26.77
2023-03-06T06:37:04.910Z,27.15
2023-03-06T06:39:31.477Z,25.75
2023-03-06T06:42:20.198Z,27.65
2023-03-06T06:44:44.364Z,32.28
2023-03-06T06:47:26.373Z,29.45
2023-03-06T06:49:53.554Z,29.30
2023-03-06T06:52:20.096Z,29.73
2023-03-06T06:54:46.742Z,25.48
2023-03-06T06:57:13.253Z,28.08
2023-03-06T06:59:39.663Z,29.00
2023-03-06T07:02:06.390Z,26.02
2023-03-06T07:04:32.996Z,24.83
2023-03-06T07:06:59.832Z,27.17
2023-03-06T07:09:26.580Z,26.02
2023-03-06T07:11:52.991Z,24.55
2023-03-06T07:14:19.465Z,29.17
2023-03-06T07:16:45.963Z,24.60
2023-03-06T07:19:12.374Z,25.23
2023-03-06T07:21:38.858Z,24.10
2023-03-06T07:24:05.351Z,25.17
2023-03-06T07:26:34.510Z,25.95
2023-03-06T07:29:01.281Z,26.40
2023-03-06T07:31:28.253Z,23.98
2023-03-06T07:33:54.788Z,22.67
2023-03-06T07:36:22.411Z,23.50
2023-03-06T07:38:48.846Z,23.67
2023-03-06T07:41:16.514Z,21.80
2023-03-06T07:43:44.339Z,21.70
2023-03-06T07:46:12.797Z,22.10
2023-03-06T07:48:39.878Z,24.55
2023-03-06T07:51:07.467Z,23.08
2023-03-06T07:53:34.660Z,22.77
2023-03-06T07:56:01.217Z,20.00
2023-03-06T07:58:27.678Z,21.00
2023-03-06T08:00:54.062Z,21.90
2023-03-06T08:03:20.608Z,17.48
2023-03-06T08:05:47.055Z,21.15
2023-03-06T08:08:13.599Z,20.30
2023-03-06T08:10:40.117Z,19.88
2023-03-06T08:13:06.537Z,21.45
2023-03-06T08:15:33.048Z,19.45
2023-03-06T08:17:59.707Z,17.38
2023-03-06T08:20:26.125Z,17.00
2023-03-06T08:22:52.687Z,17.85
2023-03-06T08:25:19.220Z,14.30
2023-03-06T08:27:47.399Z,13.40
2023-03-06T08:30:14.120Z,15.82
2023-03-06T08:32:40.714Z,13.52
2023-03-06T08:35:07.436Z,12.77
2023-03-06T08:37:33.967Z,12.10
2023-03-06T08:40:02.581Z,12.65
2023-03-06T08:42:28.991Z,10.48
2023-03-06T12:50:37.248Z,12.43
2023-03-06T12:53:05.411Z,12.10
2023-03-06T12:55:45.817Z,13.52
2023-03-06T12:58:30.275Z,14.73
2023-03-06T13:01:14.954Z,12.65
2023-03-06T13:03:54.332Z,12.05
2023-03-06T13:06:32.417Z,13.82
2023-03-06T13:09:13.373Z,13.07
2023-03-06T13:11:52.247Z,15.10
2023-03-06T13:14:22.659Z,14.00
2023-03-06T13:16:49.135Z,12.75
2023-03-06T13:19:20.263Z,13.32
2023-03-06T13:21:55.593Z,13.35
2023-03-06T13:24:29.177Z,17.20
2023-03-06T13:26:57.555Z,13.63
2023-03-06T13:29:36.039Z,15.27
2023-03-06T13:32:02.558Z,14.95
2023-03-06T13:34:28.984Z,13.05
2023-03-06T13:37:15.428Z,17.20
2023-03-06T13:40:01.853Z,15.35
2023-03-06T13:42:31.042Z,16.40
2023-03-06T13:44:57.985Z,15.60
2023-03-06T13:47:55.715Z,17.75
2023-03-06T13:50:25.275Z,17.15
2023-03-06T13:52:53.695Z,15.88
2023-03-06T13:55:40.958Z,18.30
2023-03-06T13:58:10.803Z,20.95
2023-03-06T14:00:49.500Z,18.58
2023-03-06T14:03:26.718Z,18.48
2023-03-06T14:05:53.255Z,21.75
2023-03-06T14:08:19.809Z,22.25
2023-03-06T14:10:47.188Z,21.00
2023-03-06T14:13:45.502Z,20.55
2023-03-06T14:16:19.268Z,22.05
2023-03-06T14:18:50.519Z,20.90
2023-03-06T14:21:24.998Z,22.13
2023-03-06T14:24:00.061Z,21.60
2023-03-06T14:26:29.100Z,23.90
2023-03-06T14:28:56.713Z,21.70
2023-03-06T14:31:24.146Z,21.02
2023-03-06T14:33:52.681Z,23.05
2023-03-06T14:36:20.945Z,21.33
2023-03-06T14:38:47.358Z,22.55
2023-03-06T14:41:22.219Z,23.80
2023-03-06T14:43:48.677Z,22.35
2023-03-06T14:46:21.914Z,24.80
2023-03-06T14:48:49.001Z,26.63
2023-03-06T14:51:15.402Z,22.05
2023-03-06T14:53:44.511Z,22.55
2023-03-06T14:56:15.138Z,24.63
2023-03-06T14:58:48.035Z,28.45
2023-03-06T15:01:14.974Z,29.40
2023-03-06T15:03:42.923Z,29.05
2023-03-06T15:06:12.011Z,26.92
2023-03-06T15:08:39.380Z,26.08
2023-03-06T15:11:06.635Z,24.02
2023-03-06T15:13:33.953Z,24.95
2023-03-06T15:16:04.688Z,25.40
2023-03-06T15:18:36.164Z,21.85
2023-03-06T15:21:18.769Z,25.83
2023-03-06T15:23:46.560Z,23.40
2023-03-06T15:26:39.729Z,23.25
2023-03-06T15:29:10.222Z,21.60
2023-03-06T15:31:37.977Z,21.58
2023-03-06T15:34:14.116Z,22.20
2023-03-06T15:36:44.865Z,20.45
2023-03-06T15:39:26.379Z,22.80
2023-03-06T15:42:11.533Z,21.70
2023-03-06T15:44:37.947Z,19.63
2023-03-06T15:47:11.555Z,24.45
2023-03-06T15:49:38.834Z,20.75
2023-03-06T15:52:08.374Z,25.73
2023-03-06T15:54:34.975Z,22.08
2023-03-06T15:57:03.005Z,22.65
2023-03-06T15:59:32.981Z,23.80
2023-03-06T16:02:03.437Z,23.35
2023-03-06T16:04:29.954Z,21.50
2023-03-06T16:06:56.340Z,22.15
2023-03-06T16:09:23.346Z,24.48
2023-03-06T16:11:49.798Z,23.58
2023-03-06T16:14:21.393Z,24.13
2023-03-06T16:16:48.215Z,25.70
2023-03-06T16:19:25.366Z,26.58
2023-03-06T16:21:52.265Z,27.27
2023-03-06T16:24:18.780Z,23.98
2023-03-06T16:26:46.390Z,22.73
2023-03-06T16:29:16.789Z,23.83
2023-03-06T16:31:43.327Z,23.88
2023-03-06T16:34:09.792Z,26.27
2023-03-06T16:36:36.295Z,25.08
2023-03-06T16:39:03.714Z,24.92
2023-03-06T16:41:30.224Z,25.13
2023-03-06T16:43:56.662Z,30.23
2023-03-06T16:46:24.442Z,31.23
2023-03-06T16:48:51.293Z,29.67
2023-03-06T16:51:21.500Z,29.80
2023-03-06T16:53:48.315Z,28.55
2023-03-06T16:56:15.985Z,31.60
2023-03-06T16:58:42.768Z,33.10
2023-03-06T17:01:10.514Z,33.95
2023-03-06T17:03:37.077Z,37.65
2023-03-06T17:06:03.968Z,42.17
2023-03-06T17:08:30.442Z,42.08
2023-03-06T17:10:56.846Z,42.50
2023-03-06T17:13:23.315Z,41.78
2023-03-06T17:15:56.991Z,55.15
2023-03-06T17:18:25.086Z,54.45
2023-03-06T17:20:52.191Z,59.65
2023-03-06T17:23:19.729Z,56.30
2023-03-06T17:25:46.210Z,58.35
2023-03-06T17:28:12.628Z,65.05
2023-03-06T17:30:39.133Z,60.78
2023-03-06T17:33:05.614Z,69.20
2023-03-06T17:35:33.830Z,70.50
2023-03-06T17:38:00.323Z,69.55
2023-03-06T17:40:27.044Z,74.20
2023-03-06T17:42:53.778Z,73.10
2023-03-06T17:45:20.236Z,71.25
2023-03-06T17:47:48.977Z,68.53
2023-03-06T17:50:15.630Z,73.13
2023-03-06T17:52:42.027Z,66.80
2023-03-06T17:55:08.660Z,65.32
2023-03-06T17:57:35.077Z,62.40
2023-03-06T18:00:01.693Z,58.80
2023-03-06T18:02:38.557Z,55.60
2023-03-06T18:05:05.353Z,57.75
2023-03-06T18:07:32.134Z,55.15
2023-03-06T18:09:58.673Z,54.10
2023-03-06T18:12:25.150Z,55.92
2023-03-06T18:14:51.605Z,55.60
2023-03-06T18:17:18.172Z,51.05
2023-03-06T18:19:44.570Z,52.88
2023-03-06T18:22:10.994Z,55.15
2023-03-06T18:24:37.398Z,52.10
2023-03-06T18:27:03.825Z,50.80
2023-03-06T18:29:30.230Z,51.05
2023-03-06T18:31:58.783Z,48.28
2023-03-06T18:34:25.457Z,49.53
2023-03-06T18:36:52.848Z,48.60
2023-03-06T18:39:21.397Z,49.70
2023-03-06T18:41:48.582Z,54.97
2023-03-06T18:44:16.298Z,47.15
2023-03-06T18:46:43.080Z,48.75
2023-03-06T18:49:10.701Z,51.97
2023-03-06T18:51:37.469Z,47.15
2023-03-06T18:54:04.598Z,48.90
2023-03-06T18:56:31.282Z,45.78
2023-03-06T18:59:01.483Z,43.35
2023-03-06T19:01:30.682Z,43.33
2023-03-06T19:04:01.290Z,44.58
2023-03-06T19:06:28.773Z,39.95
2023-03-06T19:08:58.636Z,41.80
2023-03-06T19:11:25.989Z,39.95
2023-03-06T19:13:52.692Z,39.22
2023-03-06T19:16:21.792Z,39.25
2023-03-06T19:18:48.369Z,39.63
2023-03-06T19:21:16.557Z,36.85
2023-03-06T19:23:43.077Z,41.47
2023-03-06T19:26:09.854Z,43.83
2023-03-06T19:28:37.648Z,43.08
2023-03-06T19:31:07.734Z,41.47
2023-03-06T19:33:37.325Z,45.35
2023-03-06T19:36:04.646Z,43.38
2023-03-06T19:38:31.496Z,44.13
2023-03-06T19:40:57.942Z,52.55
2023-03-06T19:43:24.363Z,50.15
2023-03-06T19:45:50.819Z,53.25
2023-03-06T19:48:17.773Z,54.92
2023-03-06T19:50:44.213Z,50.13
2023-03-06T19:53:13.792Z,51.90
2023-03-06T19:55:40.298Z,55.17
2023-03-06T19:58:06.731Z,51.65
2023-03-06T20:00:33.392Z,50.90
2023-03-06T20:02:59.965Z,49.20
2023-03-06T20:05:26.565Z,48.50
2023-03-06T20:07:53.021Z,45.00
2023-03-06T20:10:19.435Z,49.22
2023-03-06T20:12:45.902Z,46.20
2023-03-06T20:15:12.993Z,49.13
2023-03-06T20:17:42.130Z,48.35
2023-03-06T20:20:09.719Z,49.72
2023-03-06T20:22:36.998Z,44.38
2023-03-06T20:25:03.811Z,46.72
2023-03-06T20:27:30.215Z,45.65
2023-03-06T20:29:56.715Z,44.17
2023-03-06T20:32:23.159Z,41.78
2023-03-06T20:34:49.612Z,41.58
2023-03-06T20:37:16.119Z,42.55
2023-03-06T20:39:42.604Z,43.45
2023-03-06T20:42:09.001Z,39.13
2023-03-06T20:44:36.607Z,40.20
2023-03-06T20:47:03.055Z,43.95
2023-03-06T20:49:29.542Z,37.92
2023-03-06T20:51:56.700Z,38.55
2023-03-06T20:54:23.395Z,39.80
2023-03-06T20:56:50.363Z,37.67
2023-03-06T20:59:17.227Z,34.22
2023-03-06T21:01:44.615Z,34.35
2023-03-06T21:04:13.752Z,34.70
2023-03-06T21:06:41.960Z,34.47
2023-03-06T21:09:08.455Z,32.78
2023-03-06T21:11:35.148Z,30.17
2023-03-06T21:14:01.702Z,31.08
2023-03-06T21:16:28.294Z,32.00
2023-03-06T21:18:55.059Z,30.38
2023-03-06T21:21:22.881Z,31.05
2023-03-06T21:23:49.944Z,32.05
2023-03-06T21:26:23.413Z,29.55
2023-03-06T21:28:50.022Z,28.98
2023-03-06T21:31:17.228Z,35.15
2023-03-06T21:33:43.867Z,32.30
2023-03-06T21:36:10.754Z,30.08
2023-03-06T21:38:38.835Z,29.75
2023-03-06T21:41:15.930Z,30.23
2023-03-06T21:43:42.841Z,28.08
2023-03-06T21:46:09.512Z,29.27
2023-03-06T21:48:35.999Z,28.00
2023-03-06T21:51:10.129Z,28.60
2023-03-06T21:53:37.077Z,27.30
2023-03-06T21:56:04.580Z,28.42
2023-03-06T21:58:31.177Z,29.50
2023-03-06T22:00:57.761Z,28.55
2023-03-06T22:03:24.295Z,27.65
2023-03-06T22:05:52.050Z,28.98
2023-03-06T22:08:21.342Z,25.52
2023-03-06T22:10:48.855Z,28.55
2023-03-06T22:13:15.791Z,30.55
2023-03-06T22:15:55.184Z,27.52
2023-03-06T22:18:21.684Z,26.20
2023-03-06T22:20:48.167Z,33.67
2023-03-06T22:23:14.607Z,36.40
2023-03-06T22:25:41.052Z,32.22
2023-03-06T22:28:07.757Z,32.22
2023-03-06T22:30:34.409Z,32.95
2023-03-06T22:33:00.917Z,29.17
2023-03-06T22:35:27.357Z,31.02
2023-03-06T22:37:53.894Z,41.88
2023-03-06T22:40:20.309Z,33.17
2023-03-06T22:42:46.863Z,32.70
2023-03-06T22:45:13.318Z,30.00
2023-03-06T22:47:40.174Z,31.10
2023-03-06T22:50:07.126Z,34.47
2023-03-06T22:52:33.711Z,34.95
2023-03-06T22:55:00.185Z,32.38
2023-03-06T22:57:26.676Z,32.22
2023-03-06T22:59:53.092Z,35.40
2023-03-06T23:02:19.485Z,31.98
2023-03-06T23:04:48.446Z,34.30
2023-03-06T23:07:14.858Z,32.50
2023-03-06T23:09:41.285Z,30.80
2023-03-06T23:12:26.609Z,33.75
2023-03-06T23:15:11.807Z,32.67
2023-03-06T23:17:56.906Z,31.73
2023-03-06T23:20:42.680Z,33.45
2023-03-06T23:23:28.181Z,34.30
2023-03-06T23:25:58.230Z,34.58
2023-03-06T23:28:25.257Z,35.38
2023-03-06T23:30:51.932Z,35.53
2023-03-06T23:33:18.520Z,37.97
2023-03-06T23:35:45.427Z,32.33
2023-03-06T23:38:12.252Z,33.60
2023-03-06T23:40:39.079Z,34.83
2023-03-06T23:43:05.853Z,33.53
2023-03-06T23:45:32.528Z,34.90
2023-03-06T23:47:59.010Z,36.03
2023-03-06T23:50:26.303Z,35.38
2023-03-06T23:52:53.524Z,35.03
2023-03-06T23:55:20.172Z,38.03
2023-03-06T23:57:46.653Z,36.38
